Time;durP1;ratioP1;P1;durP2;ratioP2;P2;SDS_P1;SDS_P2;PMS_P1;PMS_P2;Temp;Humidity;BMP_temperature;BMP_pressure;BME280_temperature;BME280_humidity;BME280_pressure;Samples;Min_cycle;Max_cycle;Signal;HPM_P1;HPM_P2
2021/09/21 00:00:18;;;;;;;10.85;6.72;;;;;;;;;;5032167;28;20111;-47
2021/09/21 00:02:45;;;;;;;10.77;7.22;;;;;;;;;;5032646;28;20037;-44
2021/09/21 00:05:12;;;;;;;9.40;6.78;;;;;;;;;;5032044;28;20056;-46
2021/09/21 00:07:39;;;;;;;9.55;6.78;;;;;;;;;;5032295;28;20041;-44
2021/09/21 00:10:06;;;;;;;10.93;7.35;;;;;;;;;;5032505;28;20049;-44
2021/09/21 00:12:34;;;;;;;11.25;7.30;;;;;;;;;;5046492;28;20067;-43
2021/09/21 00:15:01;;;;;;;11.20;7.40;;;;;;;;;;5049436;28;20049;-44
2021/09/21 00:17:28;;;;;;;9.07;6.57;;;;;;;;;;5048529;28;20037;-44
2021/09/21 00:19:55;;;;;;;10.25;7.22;;;;;;;;;;5035165;28;20506;-44
2021/09/21 00:22:22;;;;;;;8.23;6.18;;;;;;;;;;5053005;28;20079;-43
2021/09/21 00:24:48;;;;;;;9.25;6.47;;;;;;;;;;5048950;28;20135;-43
2021/09/21 00:27:15;;;;;;;10.18;6.80;;;;;;;;;;5033309;28;20053;-43
2021/09/21 00:29:42;;;;;;;10.05;6.68;;;;;;;;;;5031477;28;20041;-45
2021/09/21 00:32:15;;;;;;;11.50;7.20;;;;;;;;;;5031655;28;20473;-47
2021/09/21 00:34:43;;;;;;;9.57;7.07;;;;;;;;;;5031188;28;20049;-47
2021/09/21 00:37:11;;;;;;;11.93;6.82;;;;;;;;;;5031456;28;20103;-45
2021/09/21 00:39:39;;;;;;;10.05;6.93;;;;;;;;;;5031606;28;20042;-46
2021/09/21 00:42:06;;;;;;;11.07;7.10;;;;;;;;;;5031552;28;20128;-45
2021/09/21 00:44:34;;;;;;;10.75;7.05;;;;;;;;;;5031120;28;20136;-44
2021/09/21 00:47:02;;;;;;;9.70;6.88;;;;;;;;;;5031134;28;20502;-48
2021/09/21 00:49:29;;;;;;;8.73;6.30;;;;;;;;;;5031537;28;20049;-49
2021/09/21 00:51:56;;;;;;;9.35;6.53;;;;;;;;;;5031415;28;20140;-49
2021/09/21 00:54:23;;;;;;;9.27;6.75;;;;;;;;;;5030648;28;20049;-46
2021/09/21 00:56:50;;;;;;;10.77;6.72;;;;;;;;;;5031324;28;20077;-45
2021/09/21 00:59:16;;;;;;;8.38;6.05;;;;;;;;;;5031200;28;20037;-44
2021/09/21 01:01:43;;;;;;;8.70;6.22;;;;;;;;;;5031284;28;20122;-48
2021/09/21 01:04:10;;;;;;;8.82;6.20;;;;;;;;;;5030978;28;20388;-49
2021/09/21 01:06:37;;;;;;;11.13;6.32;;;;;;;;;;5031114;28;20041;-46
2021/09/21 01:09:04;;;;;;;8.98;6.35;;;;;;;;;;5030113;28;20076;-48
2021/09/21 01:11:31;;;;;;;9.52;6.70;;;;;;;;;;5031254;28;20077;-44
2021/09/21 01:13:58;;;;;;;9.10;7.00;;;;;;;;;;5030992;28;20065;-48
2021/09/21 01:16:25;;;;;;;10.20;6.38;;;;;;;;;;5033554;28;20069;-45
2021/09/21 01:18:52;;;;;;;8.27;6.47;;;;;;;;;;5051056;28;20099;-45
2021/09/21 01:21:22;;;;;;;8.98;6.07;;;;;;;;;;5051003;28;20091;-47
2021/09/21 01:23:53;;;;;;;7.55;5.97;;;;;;;;;;5045765;28;20186;-50
2021/09/21 01:26:20;;;;;;;8.40;6.35;;;;;;;;;;5031131;28;20119;-46
2021/09/21 01:28:48;;;;;;;8.27;6.10;;;;;;;;;;5030816;28;20128;-46
2021/09/21 01:31:15;;;;;;;9.60;6.28;;;;;;;;;;5031083;28;20053;-49
2021/09/21 01:33:44;;;;;;;10.07;6.55;;;;;;;;;;5029130;28;20085;-48
2021/09/21 01:36:13;;;;;;;11.68;7.50;;;;;;;;;;5031575;28;20578;-42
2021/09/21 01:38:40;;;;;;;10.43;7.65;;;;;;;;;;5030785;28;20148;-44
2021/09/21 01:41:07;;;;;;;8.68;6.68;;;;;;;;;;5031088;28;20046;-41
2021/09/21 01:43:33;;;;;;;9.30;6.68;;;;;;;;;;5030648;28;20052;-46
2021/09/21 01:46:00;;;;;;;9.57;6.45;;;;;;;;;;5029795;28;20045;-44
2021/09/21 01:48:27;;;;;;;8.65;6.40;;;;;;;;;;5030756;28;20045;-43
2021/09/21 02:01:08;;;;;;;10.35;7.65;;;;;;;;;;5034393;28;20066;-42
2021/09/21 02:03:35;;;;;;;9.68;7.35;;;;;;;;;;5030615;28;20076;-42
2021/09/21 02:06:04;;;;;;;10.07;7.45;;;;;;;;;;5033956;28;20045;-41
2021/09/21 02:08:31;;;;;;;11.25;7.88;;;;;;;;;;5034599;28;20158;-42
2021/09/21 02:10:58;;;;;;;13.27;7.70;;;;;;;;;;5034411;28;20073;-43
2021/09/21 02:13:25;;;;;;;9.85;7.63;;;;;;;;;;5034261;28;20132;-42
2021/09/21 02:15:52;;;;;;;9.35;7.15;;;;;;;;;;5034263;28;20045;-41
2021/09/21 02:18:19;;;;;;;11.60;7.97;;;;;;;;;;5050045;28;20060;-43
2021/09/21 02:20:46;;;;;;;10.95;7.80;;;;;;;;;;5054048;28;20083;-44
2021/09/21 02:23:12;;;;;;;12.85;8.50;;;;;;;;;;5053860;28;20128;-42
2021/09/21 02:25:39;;;;;;;14.18;9.52;;;;;;;;;;5042701;28;20072;-43
2021/09/21 02:28:06;;;;;;;13.98;9.93;;;;;;;;;;5033954;28;20228;-45
2021/09/21 02:30:33;;;;;;;11.25;8.15;;;;;;;;;;5048954;28;20045;-41
2021/09/21 02:32:59;;;;;;;13.25;8.90;;;;;;;;;;5033937;28;20069;-43
2021/09/21 02:35:26;;;;;;;12.43;8.25;;;;;;;;;;5033236;28;20115;-43
2021/09/21 02:37:53;;;;;;;15.25;8.23;;;;;;;;;;5033577;28;20065;-41
2021/09/21 02:40:20;;;;;;;14.85;8.60;;;;;;;;;;5033984;28;20048;-43
2021/09/21 02:42:50;;;;;;;14.98;8.00;;;;;;;;;;5033701;28;20402;-42
2021/09/21 02:45:17;;;;;;;11.70;8.90;;;;;;;;;;5033323;28;20111;-43
2021/09/21 02:47:43;;;;;;;14.10;9.55;;;;;;;;;;5033590;28;20571;-41
2021/09/21 02:50:10;;;;;;;11.10;8.13;;;;;;;;;;5033829;28;20128;-41
2021/09/21 02:52:37;;;;;;;12.20;8.25;;;;;;;;;;5032260;28;20187;-43
2021/09/21 02:55:05;;;;;;;11.88;8.20;;;;;;;;;;5033360;28;20088;-42
2021/09/21 02:57:33;;;;;;;11.68;7.47;;;;;;;;;;5033490;28;20069;-43
2021/09/21 03:00:01;;;;;;;10.90;7.93;;;;;;;;;;5033269;28;20041;-41
2021/09/21 03:02:31;;;;;;;10.68;8.05;;;;;;;;;;5033300;28;20553;-41
2021/09/21 03:05:03;;;;;;;10.73;7.70;;;;;;;;;;5033030;28;20083;-42
2021/09/21 03:07:54;;;;;;;10.63;7.80;;;;;;;;;;5033157;28;20137;-41
2021/09/21 03:10:28;;;;;;;12.95;8.02;;;;;;;;;;5033323;28;20522;-42
2021/09/21 03:18:07;;;;;;;11.48;8.80;;;;;;;;;;5055463;28;20111;-42
2021/09/21 03:20:34;;;;;;;12.75;9.05;;;;;;;;;;5069136;28;20114;-44
2021/09/21 03:23:01;;;;;;;12.23;9.32;;;;;;;;;;5072773;28;20052;-41
2021/09/21 03:25:28;;;;;;;12.13;9.13;;;;;;;;;;5044805;28;20528;-43
2021/09/21 03:27:54;;;;;;;12.80;9.13;;;;;;;;;;5032726;28;20042;-43
2021/09/21 03:30:21;;;;;;;14.70;9.27;;;;;;;;;;5032932;28;20057;-41
2021/09/21 03:32:48;;;;;;;11.85;8.40;;;;;;;;;;5032769;28;20141;-41
2021/09/21 03:35:15;;;;;;;12.57;8.48;;;;;;;;;;5030878;28;20056;-43
2021/09/21 03:37:41;;;;;;;16.85;9.77;;;;;;;;;;5032338;28;20125;-41
2021/09/21 03:40:09;;;;;;;12.65;9.10;;;;;;;;;;5032682;28;20041;-43
2021/09/21 03:42:36;;;;;;;13.23;9.20;;;;;;;;;;5031277;28;20045;-42
2021/09/21 03:45:03;;;;;;;13.27;9.43;;;;;;;;;;5032375;28;20041;-43
2021/09/21 03:47:31;;;;;;;11.80;8.48;;;;;;;;;;5045410;28;20073;-42
2021/09/21 03:49:58;;;;;;;12.90;8.27;;;;;;;;;;5032462;28;20060;-42
2021/09/21 03:52:24;;;;;;;12.88;9.18;;;;;;;;;;5047731;28;20049;-48
2021/09/21 03:54:51;;;;;;;11.32;8.52;;;;;;;;;;5031682;28;20041;-44
2021/09/21 03:57:18;;;;;;;11.75;9.07;;;;;;;;;;5032445;28;20136;-43
2021/09/21 03:59:45;;;;;;;12.73;9.63;;;;;;;;;;5032276;28;20045;-43
2021/09/21 04:02:12;;;;;;;12.80;9.43;;;;;;;;;;5032254;28;20096;-43
2021/09/21 04:04:39;;;;;;;13.77;9.40;;;;;;;;;;5031892;28;20045;-43
2021/09/21 04:07:06;;;;;;;14.10;9.40;;;;;;;;;;5032192;28;20041;-42
2021/09/21 04:09:33;;;;;;;16.65;9.25;;;;;;;;;;5030937;28;20095;-45
2021/09/21 04:12:00;;;;;;;13.93;9.90;;;;;;;;;;5032173;28;20080;-46
2021/09/21 04:14:27;;;;;;;13.63;9.75;;;;;;;;;;5031532;28;20088;-46
2021/09/21 04:16:53;;;;;;;13.13;9.57;;;;;;;;;;5038063;28;20069;-46
2021/09/21 04:19:20;;;;;;;12.82;9.32;;;;;;;;;;5051540;28;20065;-46
2021/09/21 04:21:47;;;;;;;12.82;9.23;;;;;;;;;;5051807;28;20549;-46
2021/09/21 04:24:14;;;;;;;13.65;9.85;;;;;;;;;;5051328;28;20045;-49
2021/09/21 04:26:41;;;;;;;13.93;9.73;;;;;;;;;;5044179;28;20419;-46
2021/09/21 04:29:08;;;;;;;13.85;9.65;;;;;;;;;;5030863;28;20065;-47
2021/09/21 04:31:35;;;;;;;12.55;9.10;;;;;;;;;;5031537;28;20135;-45
2021/09/21 04:34:02;;;;;;;11.95;9.10;;;;;;;;;;5030913;28;20129;-47
2021/09/21 04:36:29;;;;;;;12.88;9.20;;;;;;;;;;5031391;28;20489;-47
2021/09/21 04:38:55;;;;;;;13.82;9.60;;;;;;;;;;5031227;28;20091;-45
2021/09/21 04:41:23;;;;;;;13.30;8.75;;;;;;;;;;5031436;28;20056;-45
2021/09/21 04:43:50;;;;;;;14.07;9.02;;;;;;;;;;5030960;28;20068;-46
2021/09/21 04:46:18;;;;;;;14.60;10.27;;;;;;;;;;5031364;28;20049;-47
2021/09/21 04:48:45;;;;;;;13.32;10.13;;;;;;;;;;5030879;28;20045;-49
2021/09/21 04:51:12;;;;;;;15.38;9.88;;;;;;;;;;5031440;28;20124;-49
2021/09/21 04:53:38;;;;;;;13.05;9.88;;;;;;;;;;5030692;28;20041;-46
2021/09/21 04:56:05;;;;;;;15.02;9.48;;;;;;;;;;5031037;28;20107;-45
2021/09/21 04:58:32;;;;;;;13.57;9.35;;;;;;;;;;5030998;28;20082;-46
2021/09/21 05:00:59;;;;;;;12.00;8.55;;;;;;;;;;5031143;28;20120;-46
2021/09/21 05:03:26;;;;;;;13.43;9.15;;;;;;;;;;5069511;28;20062;-45
2021/09/21 05:05:53;;;;;;;15.20;9.90;;;;;;;;;;5071208;28;20037;-46
2021/09/21 05:08:20;;;;;;;12.07;8.88;;;;;;;;;;5041541;28;20045;-45
2021/09/21 05:10:46;;;;;;;14.27;10.23;;;;;;;;;;5069778;28;20127;-44
2021/09/21 05:13:13;;;;;;;12.98;9.13;;;;;;;;;;5070916;28;20036;-45
2021/09/21 05:15:40;;;;;;;12.60;9.18;;;;;;;;;;5047829;28;20220;-43
2021/09/21 05:18:07;;;;;;;14.32;9.73;;;;;;;;;;5045751;28;20067;-46
2021/09/21 05:20:34;;;;;;;12.77;8.93;;;;;;;;;;5050954;28;20037;-45
2021/09/21 05:23:02;;;;;;;13.48;9.77;;;;;;;;;;5051187;28;20045;-45
2021/09/21 05:25:28;;;;;;;13.48;9.05;;;;;;;;;;5034068;28;20053;-45
2021/09/21 05:27:55;;;;;;;15.48;10.15;;;;;;;;;;5037838;28;20427;-43
2021/09/21 05:30:22;;;;;;;14.07;10.50;;;;;;;;;;5045416;28;20045;-44
2021/09/21 05:32:49;;;;;;;16.65;10.45;;;;;;;;;;5059188;28;20067;-46
2021/09/21 05:35:16;;;;;;;15.43;9.50;;;;;;;;;;5059659;28;20110;-47
2021/09/21 05:37:43;;;;;;;15.93;9.68;;;;;;;;;;5056612;28;20045;-44
2021/09/21 05:40:10;;;;;;;13.65;9.48;;;;;;;;;;5072187;28;20109;-45
2021/09/21 05:42:37;;;;;;;15.80;9.80;;;;;;;;;;5064002;28;20102;-45
2021/09/21 05:45:05;;;;;;;12.25;8.63;;;;;;;;;;5060372;28;20045;-45
2021/09/21 05:47:32;;;;;;;12.27;8.57;;;;;;;;;;5043965;28;20455;-46
2021/09/21 05:49:58;;;;;;;16.15;8.90;;;;;;;;;;5058545;28;20068;-47
2021/09/21 05:52:27;;;;;;;12.90;9.25;;;;;;;;;;5055321;28;20060;-46
2021/09/21 05:54:53;;;;;;;13.50;9.85;;;;;;;;;;5044376;28;20041;-44
2021/09/21 05:57:20;;;;;;;13.38;9.77;;;;;;;;;;5035356;28;20080;-44
2021/09/21 05:59:47;;;;;;;11.55;8.65;;;;;;;;;;5033053;28;20112;-46
2021/09/21 06:02:14;;;;;;;14.55;8.57;;;;;;;;;;5034375;28;20133;-46
2021/09/21 06:04:41;;;;;;;16.48;9.65;;;;;;;;;;5032636;28;20038;-48
2021/09/21 06:07:08;;;;;;;12.23;9.18;;;;;;;;;;5034294;28;20192;-46
2021/09/21 06:09:35;;;;;;;15.85;8.98;;;;;;;;;;5049372;28;20460;-47
2021/09/21 06:12:02;;;;;;;13.18;9.63;;;;;;;;;;5053768;28;20045;-46
2021/09/21 06:14:28;;;;;;;12.93;9.48;;;;;;;;;;5053464;28;20064;-45
2021/09/21 06:16:55;;;;;;;14.23;9.98;;;;;;;;;;5048523;28;20049;-47
2021/09/21 06:19:22;;;;;;;14.95;10.63;;;;;;;;;;5054052;28;20071;-45
2021/09/21 06:21:49;;;;;;;13.90;10.60;;;;;;;;;;5047353;28;20096;-45
2021/09/21 06:24:16;;;;;;;14.18;10.95;;;;;;;;;;5052177;28;20072;-47
2021/09/21 06:26:42;;;;;;;18.13;11.40;;;;;;;;;;5048381;28;20475;-47
2021/09/21 06:29:09;;;;;;;17.30;10.85;;;;;;;;;;5041021;28;20128;-45
2021/09/21 06:31:36;;;;;;;14.85;10.65;;;;;;;;;;5052158;28;20075;-49
2021/09/21 06:34:03;;;;;;;14.05;10.45;;;;;;;;;;5052312;28;20064;-47
2021/09/21 06:36:30;;;;;;;14.38;11.35;;;;;;;;;;5054032;28;20045;-48
2021/09/21 06:38:57;;;;;;;18.23;11.13;;;;;;;;;;5042618;28;20044;-47
2021/09/21 06:41:24;;;;;;;17.90;11.90;;;;;;;;;;5053458;28;20095;-48
2021/09/21 06:43:51;;;;;;;17.73;11.30;;;;;;;;;;5053204;28;20487;-51
2021/09/21 06:46:17;;;;;;;17.92;11.32;;;;;;;;;;5050069;28;20069;-48
2021/09/21 06:48:44;;;;;;;14.60;10.40;;;;;;;;;;5033662;28;20470;-48
2021/09/21 06:51:11;;;;;;;14.63;9.73;;;;;;;;;;5032819;28;20499;-48
2021/09/21 06:53:38;;;;;;;14.95;11.05;;;;;;;;;;5033063;28;20132;-47
2021/09/21 06:56:05;;;;;;;19.42;12.02;;;;;;;;;;5033149;28;20508;-47
2021/09/21 06:58:33;;;;;;;17.50;11.98;;;;;;;;;;5033252;28;20530;-48
2021/09/21 07:01:00;;;;;;;18.88;12.25;;;;;;;;;;5033553;28;20132;-45
2021/09/21 07:03:27;;;;;;;15.27;11.63;;;;;;;;;;5033236;28;20037;-47
2021/09/21 07:05:57;;;;;;;18.75;12.30;;;;;;;;;;5032313;28;20045;-46
2021/09/21 07:08:25;;;;;;;16.10;12.25;;;;;;;;;;5033150;28;20053;-48
2021/09/21 07:10:52;;;;;;;16.70;12.07;;;;;;;;;;5033266;28;20042;-47
2021/09/21 07:13:19;;;;;;;17.30;12.15;;;;;;;;;;5032927;28;20048;-50
2021/09/21 07:15:45;;;;;;;17.05;12.68;;;;;;;;;;5033017;28;20045;-49
2021/09/21 07:18:12;;;;;;;16.13;12.40;;;;;;;;;;5032941;28;20033;-50
2021/09/21 07:20:39;;;;;;;15.73;11.60;;;;;;;;;;5033040;28;20099;-48
2021/09/21 07:23:06;;;;;;;22.92;12.50;;;;;;;;;;5032847;28;20069;-44
2021/09/21 07:25:33;;;;;;;20.10;13.27;;;;;;;;;;5032666;28;20095;-48
2021/09/21 07:28:02;;;;;;;19.73;13.55;;;;;;;;;;5032689;28;20054;-48
2021/09/21 07:30:30;;;;;;;17.00;12.98;;;;;;;;;;5032617;28;20132;-43
2021/09/21 07:32:57;;;;;;;17.48;13.18;;;;;;;;;;5031559;28;20073;-48
2021/09/21 07:35:24;;;;;;;18.63;13.55;;;;;;;;;;5032571;28;20103;-47
2021/09/21 07:37:51;;;;;;;16.13;12.98;;;;;;;;;;5032589;28;20410;-48
2021/09/21 07:40:19;;;;;;;17.75;13.02;;;;;;;;;;5031935;28;20045;-47
2021/09/21 07:42:50;;;;;;;16.40;13.13;;;;;;;;;;5032607;28;20490;-48
2021/09/21 07:45:17;;;;;;;15.23;12.07;;;;;;;;;;5032562;28;20423;-50
2021/09/21 07:47:48;;;;;;;16.63;12.10;;;;;;;;;;5032484;28;20044;-49
2021/09/21 07:50:15;;;;;;;15.55;11.63;;;;;;;;;;5032401;28;20049;-45
2021/09/21 07:52:41;;;;;;;16.02;11.25;;;;;;;;;;5032358;28;20073;-48
2021/09/21 07:55:08;;;;;;;17.35;12.60;;;;;;;;;;5032158;28;20124;-48
2021/09/21 07:57:38;;;;;;;15.70;11.38;;;;;;;;;;5031941;28;20418;-47
2021/09/21 08:00:06;;;;;;;17.67;12.73;;;;;;;;;;5032358;28;20037;-46
2021/09/21 08:02:37;;;;;;;15.25;11.93;;;;;;;;;;5031221;28;20580;-49
2021/09/21 08:05:05;;;;;;;18.13;12.18;;;;;;;;;;5031786;28;20043;-48
2021/09/21 08:07:32;;;;;;;16.60;12.00;;;;;;;;;;5031969;28;20045;-47
2021/09/21 08:10:00;;;;;;;16.20;12.35;;;;;;;;;;5032233;28;20084;-46
2021/09/21 08:12:27;;;;;;;18.23;12.50;;;;;;;;;;5032012;28;20107;-49
2021/09/21 08:14:53;;;;;;;22.02;13.20;;;;;;;;;;5031147;28;20046;-50
2021/09/21 08:17:24;;;;;;;17.42;12.98;;;;;;;;;;5030851;28;20136;-50
2021/09/21 08:19:52;;;;;;;16.52;12.55;;;;;;;;;;5031935;28;20045;-48
2021/09/21 08:22:21;;;;;;;15.13;11.50;;;;;;;;;;5031963;28;20045;-52
2021/09/21 08:24:48;;;;;;;15.15;11.18;;;;;;;;;;5031440;28;20092;-49
2021/09/21 08:27:15;;;;;;;18.67;11.85;;;;;;;;;;5031804;28;20045;-48
2021/09/21 08:29:42;;;;;;;12.70;10.02;;;;;;;;;;5031587;28;20471;-49
2021/09/21 08:32:09;;;;;;;14.70;9.15;;;;;;;;;;5031656;28;20037;-51
2021/09/21 08:34:36;;;;;;;11.30;8.20;;;;;;;;;;5030054;28;20092;-46
2021/09/21 08:37:03;;;;;;;10.45;7.72;;;;;;;;;;5031628;28;20069;-50
2021/09/21 08:39:30;;;;;;;8.75;7.15;;;;;;;;;;5032005;28;20049;-50
2021/09/21 08:41:57;;;;;;;10.18;7.93;;;;;;;;;;5030032;28;20055;-46
2021/09/21 08:44:24;;;;;;;11.45;7.65;;;;;;;;;;5031315;28;20065;-47
2021/09/21 08:46:51;;;;;;;12.13;8.45;;;;;;;;;;5036069;28;20077;-48
2021/09/21 08:49:18;;;;;;;12.23;8.35;;;;;;;;;;5031389;28;20048;-47
2021/09/21 08:51:45;;;;;;;10.45;7.88;;;;;;;;;;5031422;28;20407;-48
2021/09/21 08:54:12;;;;;;;9.15;7.35;;;;;;;;;;5031093;28;20090;-52
2021/09/21 08:56:43;;;;;;;12.18;8.10;;;;;;;;;;5031006;28;20103;-49
2021/09/21 08:59:11;;;;;;;9.35;7.10;;;;;;;;;;5031067;28;20091;-48
2021/09/21 09:01:40;;;;;;;12.82;7.78;;;;;;;;;;5031111;28;20107;-47
2021/09/21 09:04:08;;;;;;;11.00;8.05;;;;;;;;;;5030751;28;20041;-44
2021/09/21 09:06:45;;;;;;;8.35;7.18;;;;;;;;;;5029791;28;20041;-48
2021/09/21 09:09:13;;;;;;;9.20;7.05;;;;;;;;;;5030824;28;20084;-46
2021/09/21 09:11:40;;;;;;;10.88;7.55;;;;;;;;;;5031243;28;20128;-49
2021/09/21 09:14:16;;;;;;;11.30;7.35;;;;;;;;;;5032237;28;20050;-50
2021/09/21 09:16:43;;;;;;;9.30;7.25;;;;;;;;;;5035658;28;20073;-46
2021/09/21 09:19:12;;;;;;;10.70;7.07;;;;;;;;;;5035387;28;20065;-48
2021/09/21 09:21:42;;;;;;;10.60;6.75;;;;;;;;;;5035081;28;20052;-45
2021/09/21 09:24:09;;;;;;;8.25;6.45;;;;;;;;;;5035047;28;20444;-48
2021/09/21 09:26:38;;;;;;;9.70;7.03;;;;;;;;;;5034943;28;20042;-44
2021/09/21 09:29:09;;;;;;;13.90;7.00;;;;;;;;;;5038324;28;20492;-49
2021/09/21 09:31:36;;;;;;;9.57;7.40;;;;;;;;;;5035056;28;20046;-49
2021/09/21 09:34:06;;;;;;;11.95;7.50;;;;;;;;;;5034472;28;20119;-50
2021/09/21 09:36:44;;;;;;;10.05;7.35;;;;;;;;;;5035000;28;20046;-45
2021/09/21 09:39:12;;;;;;;10.32;7.18;;;;;;;;;;5035264;28;20470;-44
2021/09/21 09:41:52;;;;;;;10.98;7.32;;;;;;;;;;5035360;28;20092;-44
2021/09/21 09:44:20;;;;;;;8.82;7.22;;;;;;;;;;5034752;28;20044;-44
2021/09/21 09:46:54;;;;;;;11.13;7.80;;;;;;;;;;5034959;28;20037;-45
2021/09/21 09:49:25;;;;;;;12.82;8.48;;;;;;;;;;5035181;28;20454;-46
2021/09/21 09:51:53;;;;;;;10.75;7.82;;;;;;;;;;5034612;28;20069;-51
2021/09/21 09:54:23;;;;;;;9.45;7.50;;;;;;;;;;5034209;28;20076;-47
2021/09/21 09:57:01;;;;;;;9.57;7.28;;;;;;;;;;5035265;28;20397;-46
2021/09/21 09:59:28;;;;;;;9.55;7.57;;;;;;;;;;5034785;28;20133;-47
2021/09/21 10:01:56;;;;;;;11.80;8.18;;;;;;;;;;5034412;28;20103;-46
2021/09/21 10:04:24;;;;;;;11.55;7.72;;;;;;;;;;5034258;28;20148;-44
2021/09/21 10:06:51;;;;;;;9.23;7.05;;;;;;;;;;5034351;28;20048;-42
2021/09/21 10:09:19;;;;;;;12.27;7.80;;;;;;;;;;5034509;28;20042;-47
2021/09/21 10:11:47;;;;;;;11.75;8.25;;;;;;;;;;5033238;28;20077;-45
2021/09/21 10:14:16;;;;;;;11.90;7.63;;;;;;;;;;5034392;28;20466;-44
2021/09/21 10:17:02;;;;;;;11.40;7.97;;;;;;;;;;5034829;28;20077;-42
2021/09/21 10:19:30;;;;;;;9.57;7.80;;;;;;;;;;5034733;28;20049;-43
2021/09/21 10:21:57;;;;;;;10.98;8.23;;;;;;;;;;5034065;28;20079;-45
2021/09/21 10:24:37;;;;;;;9.52;7.78;;;;;;;;;;5033518;28;20037;-46
2021/09/21 10:27:06;;;;;;;11.52;7.18;;;;;;;;;;5033153;28;20684;-43
2021/09/21 10:29:33;;;;;;;13.20;7.80;;;;;;;;;;5033342;28;20446;-44
2021/09/21 10:32:08;;;;;;;10.32;8.13;;;;;;;;;;5033992;28;20128;-43
2021/09/21 10:34:39;;;;;;;9.35;7.38;;;;;;;;;;5033403;28;20077;-46
2021/09/21 10:37:06;;;;;;;12.88;8.48;;;;;;;;;;5032445;28;20050;-43
2021/09/21 10:39:33;;;;;;;12.55;7.15;;;;;;;;;;5033387;28;20045;-44
2021/09/21 10:42:02;;;;;;;30.65;8.48;;;;;;;;;;5033771;28;20077;-44
2021/09/21 10:44:29;;;;;;;8.80;7.90;;;;;;;;;;5033378;28;20069;-44
2021/09/21 10:47:06;;;;;;;9.93;7.50;;;;;;;;;;5033447;28;20045;-46
2021/09/21 10:49:37;;;;;;;9.95;7.63;;;;;;;;;;5033640;28;20045;-43
2021/09/21 10:52:06;;;;;;;9.45;7.30;;;;;;;;;;5033641;28;20132;-43
2021/09/21 10:54:33;;;;;;;8.73;7.10;;;;;;;;;;5033104;28;20073;-46
2021/09/21 10:57:04;;;;;;;12.35;8.20;;;;;;;;;;5033473;28;20423;-47
2021/09/21 10:59:31;;;;;;;12.05;7.38;;;;;;;;;;5033124;28;20037;-46
2021/09/21 11:02:00;;;;;;;11.30;7.85;;;;;;;;;;5033444;28;20049;-46
2021/09/21 11:04:36;;;;;;;11.05;7.95;;;;;;;;;;5033019;28;20132;-47
2021/09/21 11:07:03;;;;;;;12.68;8.23;;;;;;;;;;5033149;28;20468;-46
2021/09/21 11:09:29;;;;;;;10.82;7.63;;;;;;;;;;5033254;28;20529;-45
2021/09/21 11:12:03;;;;;;;10.10;7.85;;;;;;;;;;5033115;28;20478;-46
2021/09/21 11:14:30;;;;;;;10.77;8.63;;;;;;;;;;5031530;28;20123;-44
2021/09/21 11:16:57;;;;;;;11.05;8.20;;;;;;;;;;5032923;28;20148;-49
2021/09/21 11:19:30;;;;;;;11.43;8.30;;;;;;;;;;5032928;28;20144;-43
2021/09/21 11:21:58;;;;;;;9.77;7.65;;;;;;;;;;5033088;28;20045;-44
2021/09/21 11:24:25;;;;;;;10.10;7.03;;;;;;;;;;5032396;28;20037;-46
2021/09/21 11:26:56;;;;;;;10.30;7.85;;;;;;;;;;5033253;28;20061;-43
2021/09/21 11:29:23;;;;;;;13.57;8.10;;;;;;;;;;5032918;28;20041;-43
2021/09/21 11:31:50;;;;;;;10.68;8.35;;;;;;;;;;5032996;28;20042;-43
2021/09/21 11:34:17;;;;;;;12.27;7.82;;;;;;;;;;5032402;28;20056;-43
2021/09/21 11:36:49;;;;;;;12.20;8.23;;;;;;;;;;5032470;28;20407;-44
2021/09/21 11:39:17;;;;;;;10.68;7.78;;;;;;;;;;5032579;28;20118;-43
2021/09/21 11:41:53;;;;;;;10.50;7.82;;;;;;;;;;5032742;28;20415;-44
2021/09/21 11:44:21;;;;;;;9.10;7.60;;;;;;;;;;5014746;28;20042;-46
2021/09/21 11:46:56;;;;;;;11.40;7.72;;;;;;;;;;5032378;28;20038;-46
2021/09/21 11:49:23;;;;;;;12.45;8.50;;;;;;;;;;5032950;28;20435;-44
2021/09/21 11:51:49;;;;;;;10.70;7.25;;;;;;;;;;5032628;28;20560;-46
2021/09/21 11:54:17;;;;;;;9.73;7.65;;;;;;;;;;5032366;28;20038;-43
2021/09/21 11:56:45;;;;;;;11.63;8.40;;;;;;;;;;5032725;28;20549;-43
2021/09/21 11:59:13;;;;;;;8.90;6.93;;;;;;;;;;5032334;28;20044;-43
2021/09/21 12:01:40;;;;;;;10.70;7.53;;;;;;;;;;5032636;28;20550;-44
2021/09/21 12:04:09;;;;;;;11.65;7.53;;;;;;;;;;5031999;28;20061;-44
2021/09/21 12:06:37;;;;;;;11.93;8.45;;;;;;;;;;5032231;28;20076;-46
2021/09/21 12:09:04;;;;;;;9.48;7.90;;;;;;;;;;5032216;28;20053;-45
2021/09/21 12:11:36;;;;;;;9.25;7.88;;;;;;;;;;5032433;28;20071;-45
2021/09/21 12:14:05;;;;;;;13.00;8.20;;;;;;;;;;5030780;28;20053;-45
2021/09/21 12:16:32;;;;;;;9.27;7.68;;;;;;;;;;5031931;28;20038;-44
2021/09/21 12:19:00;;;;;;;10.18;7.85;;;;;;;;;;5032007;28;20048;-44
2021/09/21 12:21:29;;;;;;;11.68;7.68;;;;;;;;;;5032068;28;20505;-45
2021/09/21 12:23:56;;;;;;;11.05;7.35;;;;;;;;;;5030406;28;20048;-43
2021/09/21 12:26:23;;;;;;;18.25;7.70;;;;;;;;;;5031764;28;20120;-44
2021/09/21 12:28:52;;;;;;;8.55;6.80;;;;;;;;;;5031541;28;20049;-46
2021/09/21 12:31:29;;;;;;;8.32;6.82;;;;;;;;;;5031793;28;20041;-46
2021/09/21 12:33:57;;;;;;;10.00;8.32;;;;;;;;;;5030019;28;20049;-47
2021/09/21 12:36:30;;;;;;;9.80;7.93;;;;;;;;;;5031555;28;20041;-45
2021/09/21 12:38:57;;;;;;;8.82;7.50;;;;;;;;;;5031503;28;20095;-45
2021/09/21 12:41:24;;;;;;;10.10;7.28;;;;;;;;;;5031632;28;20038;-44
2021/09/21 12:43:54;;;;;;;8.93;6.93;;;;;;;;;;5031547;28;20468;-44
2021/09/21 12:46:21;;;;;;;9.80;7.20;;;;;;;;;;5032121;28;20045;-43
2021/09/21 12:48:48;;;;;;;10.93;7.13;;;;;;;;;;5031261;28;20092;-45
2021/09/21 12:51:15;;;;;;;8.68;7.53;;;;;;;;;;5031321;28;20076;-48
2021/09/21 12:53:45;;;;;;;8.85;6.82;;;;;;;;;;5031055;28;20053;-44
2021/09/21 12:56:12;;;;;;;9.35;7.70;;;;;;;;;;5031234;28;20084;-48
2021/09/21 12:58:40;;;;;;;10.88;8.25;;;;;;;;;;5031237;28;20065;-46
2021/09/21 13:01:11;;;;;;;9.40;7.40;;;;;;;;;;5031435;28;20133;-44
2021/09/21 13:03:38;;;;;;;11.65;8.23;;;;;;;;;;5030847;28;20040;-45
2021/09/21 13:06:07;;;;;;;10.13;7.65;;;;;;;;;;5031796;28;20046;-43
2021/09/21 13:08:42;;;;;;;9.98;7.57;;;;;;;;;;5031261;28;20045;-42
2021/09/21 13:11:09;;;;;;;10.80;8.00;;;;;;;;;;5031269;28;20065;-45
2021/09/21 13:13:36;;;;;;;12.43;7.82;;;;;;;;;;5030988;28;20049;-44
2021/09/21 13:16:04;;;;;;;10.25;7.70;;;;;;;;;;5031479;28;20124;-47
2021/09/21 13:18:31;;;;;;;12.98;8.15;;;;;;;;;;5031230;28;20044;-46
2021/09/21 13:20:57;;;;;;;11.45;8.75;;;;;;;;;;5031258;28;20053;-45
2021/09/21 13:23:24;;;;;;;10.93;8.15;;;;;;;;;;5030948;28;20060;-45
2021/09/21 13:25:51;;;;;;;11.80;8.63;;;;;;;;;;5031030;28;20125;-45
2021/09/21 13:28:18;;;;;;;12.02;8.70;;;;;;;;;;5031218;28;20095;-47
2021/09/21 13:30:49;;;;;;;15.02;9.00;;;;;;;;;;5031205;28;20072;-44
2021/09/21 13:33:17;;;;;;;12.13;8.15;;;;;;;;;;5032415;28;20464;-44
2021/09/21 13:35:44;;;;;;;13.45;9.00;;;;;;;;;;5030938;28;20099;-42
2021/09/21 13:38:11;;;;;;;9.15;7.35;;;;;;;;;;5031176;28;20148;-45
2021/09/21 13:40:39;;;;;;;9.93;7.35;;;;;;;;;;5030870;28;20069;-43
2021/09/21 13:43:08;;;;;;;14.82;7.20;;;;;;;;;;5030691;28;20060;-43
2021/09/21 13:45:35;;;;;;;11.20;8.20;;;;;;;;;;5029604;28;20484;-42
2021/09/21 13:48:01;;;;;;;10.20;7.55;;;;;;;;;;5030191;28;20045;-43
2021/09/21 13:50:28;;;;;;;10.80;7.72;;;;;;;;;;5031200;28;20119;-43
2021/09/21 13:52:56;;;;;;;12.77;7.78;;;;;;;;;;5031126;28;20064;-44
2021/09/21 13:55:23;;;;;;;9.07;8.02;;;;;;;;;;5029205;28;20097;-46
2021/09/21 13:57:50;;;;;;;10.50;8.80;;;;;;;;;;5030781;28;20499;-42
2021/09/21 14:00:21;;;;;;;12.00;8.10;;;;;;;;;;5032133;28;20147;-45
2021/09/21 14:02:53;;;;;;;9.55;7.85;;;;;;;;;;5032946;28;20057;-46
2021/09/21 14:05:20;;;;;;;9.70;7.80;;;;;;;;;;5034309;28;20049;-43
2021/09/21 14:07:48;;;;;;;13.00;8.43;;;;;;;;;;5034200;28;20372;-45
2021/09/21 14:10:16;;;;;;;10.60;8.18;;;;;;;;;;5033139;28;20124;-42
2021/09/21 14:12:43;;;;;;;9.63;7.68;;;;;;;;;;5034273;28;20391;-45
2021/09/21 14:15:11;;;;;;;11.85;8.40;;;;;;;;;;5033757;28;20049;-42
2021/09/21 14:17:41;;;;;;;9.88;7.95;;;;;;;;;;5034046;28;20500;-42
2021/09/21 14:20:08;;;;;;;10.88;9.13;;;;;;;;;;5034108;28;20449;-41
2021/09/21 14:22:36;;;;;;;12.43;10.40;;;;;;;;;;5034115;28;20041;-44
2021/09/21 14:25:04;;;;;;;11.20;9.40;;;;;;;;;;5032329;28;20049;-42
2021/09/21 14:27:31;;;;;;;10.18;8.18;;;;;;;;;;5033918;28;20373;-43
2021/09/21 14:29:58;;;;;;;10.43;8.77;;;;;;;;;;5033745;28;20099;-44
2021/09/21 14:32:25;;;;;;;11.32;9.63;;;;;;;;;;5033910;28;20053;-42
2021/09/21 14:34:53;;;;;;;11.32;8.98;;;;;;;;;;5033582;28;20049;-43
2021/09/21 14:37:20;;;;;;;12.32;8.85;;;;;;;;;;5033773;28;20538;-42
2021/09/21 14:39:47;;;;;;;11.60;9.82;;;;;;;;;;5033861;28;20124;-42
2021/09/21 14:42:14;;;;;;;12.95;9.25;;;;;;;;;;5033665;28;20046;-47
2021/09/21 14:44:41;;;;;;;12.80;9.75;;;;;;;;;;5033555;28;20045;-42
2021/09/21 14:47:08;;;;;;;12.10;10.00;;;;;;;;;;5033768;28;20406;-42
2021/09/21 14:49:34;;;;;;;11.00;9.38;;;;;;;;;;5033782;28;20130;-44